Weather at Ramon Air Base

Public forecast

Using degrees Celsius for public forecast. Weather courtesy of forecast.io.

Closest aviation weather report (METAR) to Ramon Air Base

Closest report is Ramon International Airport, 65.5 nm (121.3 km) SSE.

2022/11/27 07:50 (retrieved 48 minutes ago)

LLER 270750Z 01012KT CAVOK 21/09 Q1015 RMK FEW100

Closest aviation forecast (TAF) to Ramon Air Base

Closest forecast is Ramon International Airport, 65.5 nm (121.3 km) SSE.

2022/11/27 06:00 (retrieved 3 hours ago)

TAF LLER 270501Z 2706/2806 01010KT CAVOK BECMG 2710/2712 02017KT BECMG 2716/2718 36010KT TX25/2713Z TN16/2804Z